Data for 08/23/2013

Time Sea-Level Adjusted Pressure Absolute Pressure Temperature Relative Humidity Dew Point   
(mb) (inHg) (mb) (inHg) (C) (F) (%) (C) (F)
00:05 1020 30.12 849 25.07 17.7 63.8 60 9.9 49.8
00:10 1020 30.12 849 25.07 17.8 64 60 9.9 49.9
00:15 1020 30.12 849 25.07 17.7 63.9 64 10.8 51.5
00:20 1020 30.12 849 25.07 17.1 62.7 65 10.6 51.1
00:25 1019 30.09 849 25.07 16.8 62.3 66 10.4 50.7
00:30 1019 30.09 849 25.07 16.8 62.3 67 10.8 51.5
00:35 1019 30.09 849 25.07 16.7 62.1 70 11.3 52.4
00:40 1019 30.09 848 25.04 16.8 62.3 67 10.7 51.3
00:45 1019 30.09 848 25.04 16.5 61.6 68 10.7 51.2
00:50 1019 30.09 848 25.04 16 60.8 69 10.3 50.6
00:55 1019 30.09 848 25.04 16.1 61 68 10.3 50.6
01:00 1019 30.09 848 25.04 16.3 61.3 67 10.2 50.4
01:05 1019 30.09 848 25.04 16.5 61.7 66 10.2 50.4
01:10 1019 30.09 848 25.04 16.5 61.6 65 10 50
01:15 1019 30.09 848 25.04 16.6 61.9 62 9.4 48.9
01:20 1019 30.09 848 25.04 16.9 62.5 63 10 50
01:25 1019 30.09 848 25.04 16.7 62 66 10.4 50.7
01:30 1019 30.09 848 25.04 16.4 61.5 68 10.6 51.1
01:35 1019 30.09 848 25.04 16.1 60.9 71 10.9 51.5
01:40 1019 30.09 848 25.04 16 60.7 69 10.4 50.7
01:45 1019 30.09 848 25.04 16.2 61.1 69 10.5 51
01:50 1019 30.09 848 25.04 16.1 61 69 10.5 50.9
01:55 1019 30.09 848 25.04 16 60.8 71 10.7 51.3
02:00 1019 30.09 848 25.04 15.9 60.7 70 10.6 51.1
02:05 1019 30.09 848 25.04 16.1 60.9 70 10.7 51.2
02:10 1019 30.09 848 25.04 16 60.8 70 10.5 50.9
02:15 1019 30.09 848 25.04 16.1 60.9 70 10.6 51.1
02:20 1019 30.09 848 25.04 15.8 60.4 72 10.7 51.3
02:25 1019 30.09 848 25.04 15.8 60.5 71 10.6 51.1
02:30 1019 30.09 848 25.04 15.7 60.3 73 10.9 51.6
02:35 1018 30.06 848 25.04 15.6 60.1 72 10.6 51.1
02:40 1018 30.06 848 25.04 15.6 60.1 71 10.5 50.9
02:45 1018 30.06 847 25.01 15.8 60.4 70 10.4 50.7
02:50 1018 30.06 847 25.01 15.9 60.6 68 10 50.1
02:55 1018 30.06 847 25.01 16.2 61.2 67 10.1 50.1
03:00 1018 30.06 847 25.01 16.3 61.4 66 10 50.1
03:05 1018 30.06 847 25.01 16.3 61.3 66 10.1 50.1
03:10 1018 30.06 847 25.01 16.2 61.2 66 9.9 49.8
03:15 1018 30.06 847 25.01 16.2 61.1 65 9.6 49.3
03:20 1018 30.06 847 25.01 16.1 61 65 9.5 49.1
03:25 1018 30.06 847 25.01 16.3 61.3 64 9.6 49.2
03:30 1018 30.06 847 25.01 16.3 61.3 64 9.6 49.2
03:35 1018 30.06 847 25.01 16.2 61.1 65 9.7 49.5
03:40 1018 30.06 847 25.01 16.1 61 66 9.8 49.6
03:45 1018 30.06 847 25.01 16.1 61 65 9.6 49.4
03:50 1018 30.06 847 25.01 16.4 61.4 65 9.9 49.7
03:55 1018 30.06 847 25.01 16.2 61.1 64 9.5 49.2
04:00 1018 30.06 847 25.01 16.3 61.3 65 9.6 49.4
04:05 1018 30.06 847 25.01 16.1 60.9 64 9.4 48.9
04:10 1018 30.06 847 25.01 16 60.8 63 9.2 48.5
04:15 1018 30.06 847 25.01 16 60.9 63 9.1 48.4
04:20 1018 30.06 847 25.01 16 60.8 64 9.2 48.6
04:25 1018 30.06 847 25.01 16 60.8 63 9.1 48.3
04:30 1018 30.06 847 25.01 16 60.8 63 9 48.3
04:35 1018 30.06 847 25.01 16.1 61.1 62 9 48.3
04:40 1018 30.06 847 25.01 16.1 61 62 9 48.2
04:45 1018 30.06 847 25.01 16.1 60.9 63 9.1 48.3
04:50 1018 30.06 847 25.01 16 60.8 66 9.7 49.5
04:55 1018 30.06 847 25.01 15.9 60.6 63 8.9 47.9
05:00 1018 30.06 847 25.01 15.9 60.7 62 8.7 47.6
05:05 1018 30.06 847 25.01 16 60.8 62 8.8 47.9
05:10 1018 30.06 847 25.01 16 60.7 62 8.9 48
05:15 1018 30.06 847 25.01 15.8 60.5 63 8.9 48
05:20 1018 30.06 847 25.01 15.7 60.3 63 8.8 47.9
05:25 1018 30.06 847 25.01 15.6 60 64 8.9 48
05:30 1018 30.06 847 25.01 15.7 60.2 64 8.9 48
05:35 1018 30.06 847 25.01 15.6 60 64 8.8 47.9
05:40 1018 30.06 847 25.01 15.9 60.6 64 9.3 48.7
05:45 1018 30.06 847 25.01 16.1 60.9 62 8.9 48.1
05:50 1018 30.06 847 25.01 15.9 60.6 63 9 48.1
05:55 1018 30.06 847 25.01 15.8 60.4 64 9 48.2
06:00 1018 30.06 847 25.01 15.8 60.4 64 8.9 48.1
06:05 1018 30.06 847 25.01 15.7 60.3 64 9.1 48.4
06:10 1018 30.06 847 25.01 15.7 60.2 64 9 48.1
06:15 1018 30.06 847 25.01 15.6 60.1 64 9 48.1
06:20 1018 30.06 847 25.01 15.6 60.1 64 8.9 48.1
06:25 1018 30.06 847 25.01 15.7 60.2 66 9.5 49
06:30 1018 30.06 847 25.01 15 59 69 9.5 49.1
06:35 1018 30.06 847 25.01 14.5 58 71 9.2 48.6
06:40 1018 30.06 847 25.01 14.3 57.8 71 9.2 48.5
06:45 1018 30.06 847 25.01 14.4 58 70 9.1 48.4
06:50 1018 30.06 847 25.01 14.5 58.1 69 9 48.1
06:55 1018 30.06 847 25.01 14.9 58.8 68 9.1 48.4
07:00 1018 30.06 847 25.01 15.1 59.2 67 9.2 48.5
07:05 1018 30.06 847 25.01 15.4 59.8 67 9.3 48.7
07:10 1018 30.06 847 25.01 15.8 60.4 65 9.4 48.9
07:15 1018 30.06 847 25.01 16 60.8 65 9.6 49.2
07:20 1018 30.06 847 25.01 16.1 61 64 9.5 49
07:25 1018 30.06 847 25.01 16.2 61.2 64 9.5 49.1
07:30 1018 30.06 847 25.01 16.5 61.7 64 9.8 49.6
07:35 1018 30.06 847 25.01 16.4 61.6 63 9.4 49
07:40 1018 30.06 847 25.01 16.4 61.5 65 9.9 49.9
07:45 1018 30.06 847 25.01 16.4 61.5 68 10.5 50.9
07:50 1018 30.06 847 25.01 16.5 61.7 68 10.6 51.1
07:55 1018 30.06 847 25.01 17 62.6 64 10.2 50.4
08:00 1018 30.06 847 25.01 17.7 63.9 59 9.7 49.5
08:05 1018 30.06 847 25.01 17.9 64.3 61 10.3 50.6
08:10 1018 30.06 847 25.01 18 64.5 62 10.7 51.2
08:15 1018 30.06 847 25.01 18.3 65 59 10.2 50.4
08:20 1018 30.06 847 25.01 18.6 65.5 57 10 50
08:25 1018 30.06 847 25.01 19.2 66.5 53 9.4 48.9
08:30 1018 30.06 847 25.01 19.9 67.9 49 8.9 48.1
08:35 1018 30.06 847 25.01 20.2 68.4 50 9.6 49.3
08:40 1018 30.06 847 25.01 20.4 68.8 51 10 50
08:45 1018 30.06 847 25.01 20.6 69 50 9.9 49.8
08:50 1018 30.06 847 25.01 21.3 70.4 45 8.9 48
08:55 1018 30.06 847 25.01 22 71.5 44 9.4 48.9
09:00 1018 30.06 847 25.01 22.5 72.5 42 9.1 48.3
09:05 1018 30.06 847 25.01 22.6 72.6 43 9.5 49.1
09:10 1018 30.06 847 25.01 22.2 72 43 9.4 48.8
09:15 1018 30.06 847 25.01 22.2 72 43 9.4 48.8
09:20 1018 30.06 847 25.01 22.2 72 42 8.9 47.9
09:25 1018 30.06 847 25.01 22.2 72 41 8.4 47.1
09:30 1018 30.06 847 25.01 22.2 71.9 43 9.2 48.5
09:35 1018 30.06 847 25.01 22.6 72.7 40 8.6 47.5
09:40 1018 30.06 847 25.01 24 75.2 38 9.1 48.4
09:45 1018 30.06 847 25.01 24 75.2 40 9.7 49.5
09:50 1018 30.06 847 25.01 24 75.1 40 9.6 49.2
09:55 1018 30.06 847 25.01 23.9 74.9 39 9.1 48.4
10:00 1018 30.06 847 25.01 24 75.2 39 9.5 49.2
10:05 1018 30.06 847 25.01 24.6 76.2 39 9.7 49.5
10:10 1018 30.06 847 25.01 23.8 74.9 40 9.8 49.6
10:15 1018 30.06 847 25.01 23.2 73.8 41 9.6 49.2
10:20 1018 30.06 847 25.01 22.9 73.1 42 9.3 48.7
10:25 1018 30.06 847 25.01 22.9 73.2 42 9.5 49.1
10:30 1018 30.06 847 25.01 22.6 72.7 41 9 48.2
10:35 1018 30.06 847 25.01 22.5 72.4 42 9 48.3
10:40 1018 30.06 847 25.01 22.9 73.2 40 8.8 47.9
10:45 1018 30.06 847 25.01 23.2 73.8 41 9.4 48.9
10:50 1018 30.06 847 25.01 23 73.4 41 9.3 48.8
10:55 1018 30.06 847 25.01 23.4 74.1 39 8.9 48
11:00 1018 30.06 847 25.01 23.5 74.2 40 9.3 48.7
11:05 1018 30.06 847 25.01 23.4 74.1 39 8.8 47.9
11:10 1018 30.06 847 25.01 23.6 74.5 39 9 48.2
11:15 1018 30.06 847 25.01 23.3 73.9 41 9.3 48.7
11:20 1018 30.06 847 25.01 23.1 73.5 41 9.3 48.7
11:25 1018 30.06 847 25.01 22.7 72.9 42 9.3 48.7
11:30 1018 30.06 847 25.01 22.9 73.1 40 8.6 47.5
11:35 1018 30.06 847 25.01 24.1 75.3 38 9 48.2
11:40 1017 30.03 847 25.01 24.4 75.9 35 8.3 46.9
11:45 1017 30.03 847 25.01 24.7 76.4 35 8.4 47.2
11:50 1017 30.03 847 25.01 24.4 76 36 8.8 47.8
11:55 1017 30.03 846 24.98 24.4 76 37 9 48.2
12:00 1017 30.03 846 24.98 24.5 76.1 35 8.4 47.1
12:05 1017 30.03 846 24.98 24.5 76 36 8.5 47.4
12:10 1017 30.03 846 24.98 24.4 76 34 7.9 46.2
12:15 1017 30.03 846 24.98 24.9 76.8 34 8.1 46.6
12:20 1017 30.03 846 24.98 24.9 76.9 36 9.1 48.5
12:25 1017 30.03 846 24.98 24.5 76.1 36 8.5 47.3
12:30 1017 30.03 846 24.98 24.6 76.2 36 8.6 47.5
12:35 1017 30.03 846 24.98 24.7 76.5 36 8.8 47.8
12:40 1017 30.03 846 24.98 23.9 75.1 38 8.8 47.8
12:45 1017 30.03 846 24.98 23.7 74.6 39 9.2 48.6
12:50 1017 30.03 846 24.98 23.2 73.7 42 9.7 49.4
12:55 1017 30.03 846 24.98 23.1 73.6 43 9.9 49.9
13:00 1017 30.03 846 24.98 23 73.4 44 10.2 50.4
13:05 1017 30.03 846 24.98 22.6 72.7 46 10.7 51.2
13:10 1017 30.03 846 24.98 22.4 72.3 45 10 50
13:15 1017 30.03 846 24.98 22.6 72.6 45 10.3 50.5
13:20 1017 30.03 846 24.98 22.8 73 42 9.4 48.9
13:25 1017 30.03 846 24.98 23.4 74 42 9.7 49.5
13:30 1016 30 846 24.98 23.7 74.6 38 8.7 47.7
13:35 1016 30 846 24.98 24.6 76.2 33 7.4 45.2
13:40 1016 30 845 24.95 25.4 77.7 32 7.5 45.5
13:45 1016 30 845 24.95 26.2 79.1 31 8.2 46.7
13:50 1016 30 845 24.95 25.3 77.6 33 7.9 46.3
13:55 1016 30 845 24.95 25.9 78.6 32 8.2 46.8
14:00 1016 30 845 24.95 25.8 78.5 33 8.7 47.7
14:05 1015 29.97 845 24.95 25.7 78.2 32 8.1 46.5
14:10 1015 29.97 845 24.95 25.6 78.1 32 7.8 46
14:15 1015 29.97 845 24.95 25.7 78.3 32 7.9 46.2
14:20 1015 29.97 845 24.95 25.9 78.6 33 8.7 47.6
14:25 1015 29.97 845 24.95 25.9 78.5 33 8.4 47.2
14:30 1015 29.97 844 24.92 25.1 77.2 40 10.8 51.5
14:35 1015 29.97 844 24.92 23.3 73.9 50 12.6 54.6
14:40 1016 30 845 24.95 22.6 72.6 47 10.7 51.3
14:45 1016 30 845 24.95 22.2 72 56 13.1 55.7
14:50 1017 30.03 846 24.98 21.7 71 52 11.5 52.7
14:55 1018 30.06 847 25.01 20 68 55 10.7 51.3
15:00 1019 30.09 848 25.04 17.7 63.9 68 11.9 53.4
15:05 1019 30.09 848 25.04 16.2 61.1 77 12.3 54.1
15:10 1019 30.09 848 25.04 15.5 59.9 81 12.2 54
15:15 1018 30.06 847 25.01 15.4 59.7 83 12.6 54.6
15:20 1018 30.06 848 25.04 15.5 59.9 79 11.8 53.3
15:25 1018 30.06 848 25.04 15 58.9 85 12.5 54.5
15:30 1018 30.06 848 25.04 14.3 57.7 86 12 53.5
15:35 1018 30.06 848 25.04 14.5 58.1 84 11.8 53.3
15:40 1019 30.09 848 25.04 14.9 58.7 79 11.2 52.2
15:45 1019 30.09 848 25.04 15.3 59.6 75 10.9 51.7
15:50 1018 30.06 847 25.01 15.9 60.6 76 11.6 52.9
15:55 1018 30.06 848 25.04 15.8 60.5 76 11.6 52.9
16:00 1018 30.06 847 25.01 16 60.7 71 10.8 51.4
16:05 1018 30.06 847 25.01 16.2 61.1 69 10.6 51
16:10 1018 30.06 847 25.01 16.6 61.9 64 9.9 49.9
16:15 1017 30.03 847 25.01 17 62.7 62 9.8 49.7
16:20 1017 30.03 846 24.98 17.3 63.2 64 10.4 50.7
16:25 1017 30.03 846 24.98 17.3 63.1 66 11 51.7
16:30 1017 30.03 846 24.98 17.5 63.5 62 10.3 50.5
16:35 1017 30.03 846 24.98 17.6 63.7 67 11.6 52.8
16:40 1017 30.03 846 24.98 17.7 63.8 66 11.4 52.5
16:45 1017 30.03 846 24.98 17.7 63.8 65 11.2 52.2
16:50 1017 30.03 846 24.98 17.5 63.5 65 11 51.7
16:55 1017 30.03 846 24.98 17.7 63.9 67 11.6 52.8
17:00 1017 30.03 846 24.98 17.6 63.7 69 11.8 53.3
17:05 1017 30.03 846 24.98 17.3 63.1 68 11.5 52.6
17:10 1017 30.03 846 24.98 17 62.6 71 11.8 53.3
17:15 1017 30.03 846 24.98 16.8 62.2 71 11.6 52.9
17:20 1016 30 846 24.98 16.8 62.3 72 11.9 53.4
17:25 1016 30 846 24.98 16.8 62.3 73 12 53.6
17:30 1016 30 846 24.98 16.8 62.3 73 12 53.6
17:35 1017 30.03 846 24.98 16.9 62.4 71 11.6 52.8
17:40 1017 30.03 846 24.98 17 62.6 71 11.8 53.2
17:45 1017 30.03 846 24.98 17 62.6 70 11.5 52.7
17:50 1017 30.03 846 24.98 16.9 62.4 71 11.6 53
17:55 1017 30.03 846 24.98 16.9 62.3 69 11.2 52.2
18:00 1017 30.03 846 24.98 17 62.7 68 11.2 52.2
18:05 1017 30.03 846 24.98 17 62.6 71 11.8 53.3
18:10 1017 30.03 846 24.98 16.9 62.5 71 11.7 53
18:15 1017 30.03 846 24.98 17.1 62.7 71 11.8 53.2
18:20 1017 30.03 846 24.98 17.1 62.8 72 12 53.6
18:25 1017 30.03 846 24.98 17.1 62.9 73 12.3 54.2
18:30 1017 30.03 846 24.98 17.1 62.7 76 12.9 55.3
18:35 1017 30.03 847 25.01 16.7 62.1 77 12.8 55
18:40 1017 30.03 847 25.01 16.4 61.4 78 12.5 54.6
18:45 1017 30.03 847 25.01 16.2 61.1 80 12.7 54.9
18:50 1017 30.03 846 24.98 16 60.7 80 12.6 54.8
18:55 1017 30.03 846 24.98 15.7 60.3 83 12.8 55.1
19:00 1016 30 846 24.98 15.6 60 83 12.8 55
19:05 1017 30.03 846 24.98 15.5 59.9 84 12.7 54.9
19:10 1017 30.03 846 24.98 15.5 59.8 83 12.6 54.7
19:15 1017 30.03 846 24.98 15.5 59.9 81 12.3 54.2
19:20 1017 30.03 846 24.98 15.7 60.2 80 12.2 54
19:25 1017 30.03 846 24.98 16 60.8 77 12.1 53.7
19:30 1016 30 846 24.98 16.1 60.9 77 12.1 53.8
19:35 1016 30 846 24.98 16.2 61.1 75 11.7 53
19:40 1016 30 845 24.95 16.4 61.6 70 10.9 51.7
19:45 1016 30 845 24.95 17.1 62.7 64 10.4 50.7
19:50 1016 30 845 24.95 17.7 63.9 57 9.3 48.8
19:55 1016 30 845 24.95 18.3 64.9 57 9.6 49.3
20:00 1016 30 845 24.95 18.4 65.1 55 9.2 48.6
20:05 1016 30 845 24.95 18.1 64.6 59 10.1 50.2
20:10 1016 30 845 24.95 17.9 64.2 59 9.9 49.8
20:15 1016 30 845 24.95 18 64.4 58 9.7 49.5
20:20 1016 30 845 24.95 17.9 64.2 59 10 49.9
20:25 1016 30 845 24.95 17.9 64.2 58 9.7 49.5
20:30 1016 30 845 24.95 18.2 64.7 55 9 48.2
20:35 1016 30 845 24.95 18.6 65.4 49 7.9 46.3
20:40 1016 30 845 24.95 19.3 66.7 47 8 46.3
20:45 1016 30 845 24.95 19.5 67.1 48 8.5 47.2
20:50 1016 30 845 24.95 19.1 66.4 53 9.4 49
20:55 1016 30 845 24.95 18.5 65.3 57 9.9 49.8
21:00 1016 30 845 24.95 18.3 65 54 9 48.3
21:05 1016 30 845 24.95 18.4 65 56 9.5 49
21:10 1016 30 845 24.95 18.3 65 55 9.2 48.5
21:15 1016 30 845 24.95 18.4 65 55 9.2 48.6
21:20 1016 30 845 24.95 18.3 65 54 9.1 48.3
21:25 1016 30 845 24.95 18.3 65 55 9.3 48.8
21:30 1016 30 845 24.95 18.2 64.8 56 9.3 48.8
21:35 1016 30 845 24.95 18.1 64.5 57 9.6 49.2
21:40 1016 30 845 24.95 17.9 64.3 58 9.6 49.2
21:45 1016 30 845 24.95 17.9 64.3 58 9.6 49.3
21:50 1016 30 845 24.95 17.8 64 58 9.6 49.2
21:55 1016 30 846 24.98 17.8 64 58 9.5 49.2
22:00 1017 30.03 846 24.98 17.8 64 61 10.2 50.4
22:05 1017 30.03 846 24.98 17.8 64.1 60 9.9 49.9
22:10 1017 30.03 846 24.98 17.8 64.1 58 9.5 49.1
22:15 1017 30.03 846 24.98 18 64.4 57 9.5 49.2
22:20 1017 30.03 846 24.98 17.9 64.1 58 9.7 49.4
22:25 1017 30.03 846 24.98 17.8 64.1 58 9.5 49.1
22:30 1017 30.03 846 24.98 17.8 64.1 58 9.5 49.1
22:35 1017 30.03 846 24.98 17.7 63.9 60 10 50
22:40 1017 30.03 846 24.98 17.5 63.5 61 10.1 50.1
22:45 1017 30.03 846 24.98 17.3 63.1 63 10.3 50.6
22:50 1017 30.03 846 24.98 17 62.7 65 10.4 50.7
22:55 1017 30.03 846 24.98 16.8 62.3 66 10.5 50.9
23:00 1017 30.03 846 24.98 16.7 62 66 10.4 50.8
23:05 1017 30.03 846 24.98 16.6 61.9 67 10.5 50.8
23:10 1017 30.03 846 24.98 16.7 62 66 10.3 50.6
23:15 1017 30.03 846 24.98 16.7 62 65 10.1 50.2
23:20 1017 30.03 846 24.98 16.8 62.2 66 10.5 50.9
23:25 1017 30.03 846 24.98 16.6 61.9 68 10.8 51.5
23:30 1017 30.03 846 24.98 16.3 61.4 71 11.1 51.9
23:35 1017 30.03 846 24.98 16.1 60.9 71 10.9 51.6
23:40 1017 30.03 846 24.98 16 60.7 71 10.8 51.5
23:45 1017 30.03 846 24.98 16 60.8 70 10.5 50.9
23:50 1017 30.03 846 24.98 16.2 61.1 74 11.7 53
23:55 1017 30.03 846 24.98 16.3 61.3 69 10.6 51
24:00 1017 30.03 846 24.98 16.2 61.1 71 11 51.7